Time;durP1;ratioP1;P1;durP2;ratioP2;P2;SDS_P1;SDS_P2;PMS_P1;PMS_P2;Temp;Humidity;BMP_temperature;BMP_pressure;BME280_temperature;BME280_humidity;BME280_pressure;Samples;Min_cycle;Max_cycle;Signal;HPM_P1;HPM_P2
2021/01/15 00:01:20;;;;;;;19.23;12.68;;;1.50;99.90;;;;;;4921508;29;20034;-89
2021/01/15 00:03:46;;;;;;;19.05;12.40;;;1.50;99.90;;;;;;4921614;29;20032;-89
2021/01/15 00:06:24;;;;;;;20.40;12.18;;;1.50;99.90;;;;;;4938303;29;20051;-88
2021/01/15 00:08:50;;;;;;;19.85;11.85;;;1.50;99.90;;;;;;4920915;29;20027;-89
2021/01/15 00:11:20;;;;;;;19.20;11.35;;;1.50;99.90;;;;;;4920581;29;20024;-90
2021/01/15 00:13:46;;;;;;;19.25;12.77;;;1.40;99.90;;;;;;4920739;29;20051;-88
2021/01/15 00:16:32;;;;;;;24.17;12.55;;;1.30;99.90;;;;;;4924576;29;20083;-91
2021/01/15 00:19:02;;;;;;;16.77;11.82;;;1.30;99.90;;;;;;4920502;29;20497;-90
2021/01/15 00:21:28;;;;;;;21.92;13.18;;;1.30;99.90;;;;;;4920318;29;20035;-88
2021/01/15 00:23:59;;;;;;;20.05;13.00;;;1.40;99.90;;;;;;4921408;29;20032;-92
2021/01/15 00:26:27;;;;;;;21.35;12.57;;;1.30;99.90;;;;;;4920853;29;20031;-89
2021/01/15 00:28:53;;;;;;;26.05;12.60;;;1.30;99.90;;;;;;4921120;29;20027;-87
2021/01/15 00:31:20;;;;;;;19.27;12.85;;;1.50;99.90;;;;;;4920106;29;20038;-87
2021/01/15 00:33:46;;;;;;;18.75;11.55;;;1.50;99.90;;;;;;4920896;29;20036;-88
2021/01/15 00:36:12;;;;;;;16.55;11.70;;;1.50;99.90;;;;;;4927036;29;20023;-88
2021/01/15 00:38:38;;;;;;;18.50;11.55;;;1.60;99.90;;;;;;4933474;29;20063;-89
2021/01/15 00:41:07;;;;;;;17.15;11.40;;;1.70;99.90;;;;;;4927981;29;20118;-89
2021/01/15 00:43:33;;;;;;;18.48;12.15;;;1.70;99.90;;;;;;4942251;29;20032;-90
2021/01/15 00:45:59;;;;;;;19.77;12.35;;;1.80;99.90;;;;;;4940303;29;20035;-91
2021/01/15 00:48:25;;;;;;;21.23;12.13;;;1.80;99.90;;;;;;4922651;29;20520;-90
2021/01/15 00:50:52;;;;;;;21.00;12.88;;;1.80;99.90;;;;;;4923170;29;20450;-90
2021/01/15 00:53:19;;;;;;;17.85;12.35;;;1.80;99.90;;;;;;4923757;29;20040;-90
2021/01/15 00:55:44;;;;;;;20.00;12.23;;;1.80;99.90;;;;;;4923743;29;20028;-89
2021/01/15 00:58:14;;;;;;;18.83;12.57;;;1.90;99.90;;;;;;4940706;29;20436;-89
2021/01/15 01:00:43;;;;;;;22.15;13.88;;;2.00;99.90;;;;;;4943610;29;20110;-89
2021/01/15 01:03:09;;;;;;;21.83;13.48;;;1.90;99.90;;;;;;4930791;29;20237;-89
2021/01/15 01:05:35;;;;;;;18.42;12.85;;;2.00;99.90;;;;;;4932491;29;20549;-89
2021/01/15 01:08:00;;;;;;;17.35;12.00;;;2.10;99.90;;;;;;4926206;29;20028;-92
2021/01/15 01:10:26;;;;;;;18.33;11.98;;;2.00;99.90;;;;;;4939185;29;20034;-89
2021/01/15 01:12:57;;;;;;;16.85;12.15;;;1.90;99.90;;;;;;4940386;29;20032;-88
2021/01/15 01:15:23;;;;;;;26.30;14.00;;;1.90;99.90;;;;;;4922811;29;20179;-89
2021/01/15 01:17:49;;;;;;;24.23;12.02;;;1.80;99.90;;;;;;4938996;29;20673;-89
2021/01/15 01:20:15;;;;;;;21.42;13.30;;;1.90;99.90;;;;;;4938654;29;20466;-89
2021/01/15 01:22:40;;;;;;;19.20;12.48;;;1.90;99.90;;;;;;4922621;29;20046;-89
2021/01/15 01:25:07;;;;;;;17.77;11.65;;;1.90;99.90;;;;;;4922742;29;20034;-89
2021/01/15 01:27:33;;;;;;;18.90;11.40;;;2.00;99.90;;;;;;4925395;29;20032;-88
2021/01/15 01:29:59;;;;;;;21.50;12.93;;;2.00;99.90;;;;;;4924484;29;20042;-89
2021/01/15 01:32:24;;;;;;;18.33;11.35;;;1.80;99.90;;;;;;4942576;29;20027;-89
2021/01/15 01:34:50;;;;;;;17.65;12.10;;;1.80;99.90;;;;;;4924356;29;20145;-88
2021/01/15 01:37:16;;;;;;;17.15;10.30;;;1.90;99.90;;;;;;4922520;29;20390;-88
2021/01/15 01:39:42;;;;;;;19.38;11.52;;;1.90;99.90;;;;;;4906496;29;20458;-88
2021/01/15 01:42:07;;;;;;;15.38;10.60;;;2.00;99.90;;;;;;4922734;29;20031;-88
2021/01/15 01:44:33;;;;;;;14.13;8.57;;;2.00;99.90;;;;;;4923131;29;20478;-89
2021/01/15 01:46:59;;;;;;;13.40;8.50;;;2.00;99.90;;;;;;4920984;29;20049;-88
2021/01/15 01:49:25;;;;;;;14.20;8.70;;;2.10;99.90;;;;;;4942348;29;20047;-90
2021/01/15 01:51:51;;;;;;;13.35;7.80;;;2.00;99.90;;;;;;4911801;29;20038;-90
2021/01/15 01:54:18;;;;;;;12.73;7.75;;;1.90;99.90;;;;;;4922980;29;20131;-90
2021/01/15 01:56:44;;;;;;;12.43;8.32;;;1.90;99.90;;;;;;4922408;29;20499;-87
2021/01/15 01:59:14;;;;;;;15.52;10.27;;;2.00;99.90;;;;;;4922322;29;20134;-88
2021/01/15 02:01:40;;;;;;;14.93;9.88;;;2.00;99.90;;;;;;4938021;29;20057;-88
2021/01/15 02:04:07;;;;;;;15.48;10.18;;;2.00;99.90;;;;;;4939644;29;20059;-88
2021/01/15 02:06:36;;;;;;;15.45;10.80;;;2.10;99.90;;;;;;4924342;29;20036;-89
2021/01/15 02:09:08;;;;;;;13.63;9.68;;;2.20;99.90;;;;;;4923132;29;20055;-87
2021/01/15 02:11:36;;;;;;;14.18;9.60;;;2.20;99.90;;;;;;4906438;29;20027;-89
2021/01/15 02:14:46;;;;;;;14.80;10.18;;;2.10;99.90;;;;;;4922190;29;20039;-87
2021/01/15 02:17:16;;;;;;;17.08;9.65;;;2.10;99.90;;;;;;4924438;29;20055;-88
2021/01/15 02:20:03;;;;;;;15.55;9.65;;;2.10;99.90;;;;;;4923839;29;20024;-88
2021/01/15 02:22:44;;;;;;;17.98;9.25;;;2.10;99.90;;;;;;4921339;29;20036;-88
2021/01/15 02:25:28;;;;;;;16.48;9.48;;;2.00;99.90;;;;;;4921520;29;20398;-88
2021/01/15 02:28:12;;;;;;;16.33;10.05;;;2.00;99.90;;;;;;4921474;29;20032;-88
2021/01/15 02:30:55;;;;;;;14.80;9.18;;;1.90;99.90;;;;;;4921277;29;20024;-88
2021/01/15 02:33:48;;;;;;;16.50;9.43;;;2.00;99.90;;;;;;4922756;29;20070;-87
2021/01/15 02:36:38;;;;;;;14.32;9.40;;;2.10;99.90;;;;;;4920937;29;20028;-87
2021/01/15 02:39:11;;;;;;;15.88;9.30;;;2.00;99.90;;;;;;4920415;29;20087;-87
2021/01/15 02:41:40;;;;;;;13.70;8.98;;;2.00;99.90;;;;;;4921418;29;20039;-88
2021/01/15 02:44:10;;;;;;;14.80;9.20;;;2.00;99.90;;;;;;4905126;29;20505;-88
2021/01/15 02:46:55;;;;;;;14.27;8.48;;;2.00;99.90;;;;;;4921099;29;20039;-88
2021/01/15 02:49:21;;;;;;;11.43;8.60;;;2.00;99.90;;;;;;4905365;29;20070;-86
2021/01/15 02:51:48;;;;;;;14.73;9.65;;;1.90;99.90;;;;;;4920649;29;20410;-88
2021/01/15 02:54:13;;;;;;;17.85;10.68;;;2.00;99.90;;;;;;4920876;29;20466;-89
2021/01/15 02:56:39;;;;;;;13.15;9.25;;;2.00;99.90;;;;;;4921656;29;20129;-88
2021/01/15 02:59:06;;;;;;;15.00;9.40;;;2.00;99.90;;;;;;4920475;29;20034;-88
2021/01/15 03:01:56;;;;;;;17.02;10.05;;;2.00;99.90;;;;;;4920796;29;20053;-87
2021/01/15 03:04:48;;;;;;;15.30;9.50;;;2.00;99.90;;;;;;4937610;29;20035;-88
2021/01/15 03:07:15;;;;;;;14.43;9.35;;;2.10;99.90;;;;;;4920770;29;20027;-90
2021/01/15 03:09:45;;;;;;;16.58;9.43;;;2.10;99.90;;;;;;4920475;29;20497;-87
2021/01/15 03:12:13;;;;;;;13.10;8.75;;;2.10;99.90;;;;;;4921152;29;20032;-88
2021/01/15 03:14:39;;;;;;;16.08;9.70;;;2.00;99.90;;;;;;4920533;29;20139;-89
2021/01/15 03:17:08;;;;;;;13.75;8.95;;;2.00;99.90;;;;;;4920524;29;20031;-88
2021/01/15 03:19:42;;;;;;;12.70;8.88;;;1.90;99.90;;;;;;5093950;28;20405;-87
2021/01/15 03:22:16;;;;;;;16.65;9.32;;;1.90;99.90;;;;;;5073545;28;20044;-87
2021/01/15 03:24:56;;;;;;;13.98;9.68;;;2.00;99.90;;;;;;5073927;28;20028;-87
2021/01/15 03:27:23;;;;;;;15.70;9.55;;;2.00;99.90;;;;;;5075922;28;20039;-88
2021/01/15 03:29:49;;;;;;;14.07;8.65;;;2.00;99.90;;;;;;5045317;28;20021;-88
2021/01/15 03:32:15;;;;;;;13.48;9.10;;;2.10;99.90;;;;;;5060813;28;20050;-89
2021/01/15 03:34:42;;;;;;;13.82;9.60;;;2.10;99.90;;;;;;5044463;28;20458;-88
2021/01/15 03:37:10;;;;;;;11.35;8.40;;;2.10;99.90;;;;;;5073914;28;20028;-88
2021/01/15 03:39:36;;;;;;;18.35;8.70;;;2.10;99.90;;;;;;5073348;28;20062;-88
2021/01/15 03:42:02;;;;;;;16.02;9.40;;;2.20;99.90;;;;;;5056829;28;20459;-89
2021/01/15 03:44:32;;;;;;;16.98;9.30;;;2.10;99.90;;;;;;5072917;28;20028;-89
2021/01/15 03:46:58;;;;;;;12.73;8.55;;;2.20;99.90;;;;;;5057205;28;20055;-89
2021/01/15 03:49:25;;;;;;;15.90;8.27;;;2.10;99.90;;;;;;5073118;28;20085;-89
2021/01/15 03:51:50;;;;;;;14.57;9.00;;;2.20;99.90;;;;;;5056502;28;20060;-89
2021/01/15 03:54:16;;;;;;;14.15;9.25;;;2.20;99.90;;;;;;5055830;28;20059;-88
2021/01/15 03:56:43;;;;;;;13.38;9.20;;;2.20;99.90;;;;;;5055794;28;20054;-89
2021/01/15 03:59:09;;;;;;;14.82;10.18;;;2.20;99.90;;;;;;5072440;28;20032;-89
2021/01/15 04:01:37;;;;;;;16.92;9.35;;;2.10;99.90;;;;;;5072865;28;20112;-88
2021/01/15 04:04:04;;;;;;;15.38;9.48;;;2.10;99.90;;;;;;5056276;28;20032;-89
2021/01/15 04:06:30;;;;;;;16.58;10.32;;;2.10;99.90;;;;;;5055316;28;20040;-88
2021/01/15 04:08:55;;;;;;;18.15;9.38;;;2.10;99.90;;;;;;5056174;28;20507;-88
2021/01/15 04:11:21;;;;;;;17.02;9.35;;;2.10;99.90;;;;;;5056383;28;20028;-88
2021/01/15 04:13:47;;;;;;;14.63;8.90;;;2.10;99.90;;;;;;5055641;28;20039;-88
2021/01/15 04:16:14;;;;;;;12.00;8.45;;;2.00;99.90;;;;;;5072288;28;20081;-89
2021/01/15 04:18:43;;;;;;;12.65;8.30;;;2.00;99.90;;;;;;5071423;28;20594;-89
2021/01/15 04:21:14;;;;;;;13.23;8.20;;;2.00;99.90;;;;;;5071848;28;20036;-89
2021/01/15 04:23:43;;;;;;;11.02;8.10;;;2.10;99.90;;;;;;5072285;28;20028;-87
2021/01/15 04:26:09;;;;;;;11.00;7.70;;;2.10;99.90;;;;;;5056239;28;20394;-89
2021/01/15 04:28:36;;;;;;;15.38;8.82;;;2.10;99.90;;;;;;5055714;28;20035;-89
2021/01/15 04:31:02;;;;;;;12.07;8.40;;;2.10;99.90;;;;;;5042594;28;20036;-89
2021/01/15 04:33:34;;;;;;;13.10;8.80;;;2.10;99.90;;;;;;5042318;28;20363;-88
2021/01/15 04:36:00;;;;;;;14.70;9.07;;;2.10;99.90;;;;;;5028128;28;20040;-88
2021/01/15 04:38:25;;;;;;;13.07;8.95;;;2.10;99.90;;;;;;5077264;28;20032;-89
2021/01/15 04:40:57;;;;;;;14.02;9.27;;;2.20;99.90;;;;;;5059062;28;20059;-88
2021/01/15 04:43:24;;;;;;;13.30;9.35;;;2.30;99.90;;;;;;5042179;28;20040;-91
2021/01/15 04:45:54;;;;;;;14.15;9.52;;;2.30;99.90;;;;;;5058893;28;20029;-89
2021/01/15 04:48:21;;;;;;;14.57;9.63;;;2.40;99.90;;;;;;5077542;28;20474;-89
2021/01/15 04:50:48;;;;;;;15.25;10.10;;;2.40;99.90;;;;;;5059342;28;20031;-88
2021/01/15 04:53:19;;;;;;;15.05;10.35;;;2.30;99.90;;;;;;5058680;28;20040;-90
2021/01/15 04:55:45;;;;;;;22.05;12.48;;;2.40;99.90;;;;;;5076943;28;20024;-89
2021/01/15 04:58:12;;;;;;;18.67;11.10;;;2.40;99.90;;;;;;5058385;28;20021;-90
2021/01/15 05:00:41;;;;;;;16.15;10.50;;;2.30;99.90;;;;;;5075940;28;20024;-90
2021/01/15 05:03:09;;;;;;;17.65;10.95;;;2.40;99.90;;;;;;5058628;28;20470;-90
2021/01/15 05:05:49;;;;;;;17.40;11.18;;;2.30;99.90;;;;;;5059106;28;20025;-90
2021/01/15 05:08:26;;;;;;;14.02;10.05;;;2.30;99.90;;;;;;5058933;28;20082;-91
2021/01/15 05:10:53;;;;;;;15.20;10.60;;;2.40;99.90;;;;;;5058441;28;20029;-88
2021/01/15 05:13:19;;;;;;;15.63;10.75;;;2.40;99.90;;;;;;5059229;28;20039;-89
2021/01/15 05:15:50;;;;;;;16.90;10.48;;;2.40;99.90;;;;;;5041305;28;20041;-88
2021/01/15 05:18:18;;;;;;;17.35;11.23;;;2.40;99.90;;;;;;5055304;28;20502;-87
2021/01/15 05:20:45;;;;;;;17.92;10.55;;;2.40;99.90;;;;;;5038138;28;20024;-88
2021/01/15 05:23:10;;;;;;;15.30;10.48;;;2.40;99.90;;;;;;5037955;28;20079;-89
2021/01/15 05:25:49;;;;;;;17.85;10.77;;;2.50;99.90;;;;;;5037380;28;20439;-90
2021/01/15 05:28:16;;;;;;;17.88;11.32;;;2.60;99.90;;;;;;5040702;28;20033;-90
2021/01/15 05:30:44;;;;;;;15.27;9.68;;;2.60;99.90;;;;;;5037637;28;20025;-89
2021/01/15 05:33:16;;;;;;;16.60;9.88;;;2.70;99.90;;;;;;5021429;28;20033;-89
2021/01/15 05:35:46;;;;;;;14.63;9.73;;;2.70;99.90;;;;;;5037692;28;20029;-90
2021/01/15 05:38:16;;;;;;;16.58;10.70;;;2.60;99.90;;;;;;5038432;28;20111;-90
2021/01/15 05:40:55;;;;;;;15.82;9.55;;;2.60;99.90;;;;;;5045930;28;20036;-90
2021/01/15 05:43:30;;;;;;;17.48;11.82;;;2.70;99.90;;;;;;5054135;28;20025;-90
2021/01/15 05:46:20;;;;;;;21.35;12.32;;;2.70;99.90;;;;;;5027709;28;20029;-90
2021/01/15 05:48:48;;;;;;;15.98;10.75;;;2.70;99.90;;;;;;5039735;28;20055;-89
2021/01/15 05:51:31;;;;;;;14.57;10.18;;;2.70;99.90;;;;;;5022282;28;20100;-90
2021/01/15 05:53:58;;;;;;;16.73;11.40;;;2.70;99.90;;;;;;5038039;28;20024;-90
2021/01/15 05:56:25;;;;;;;19.25;11.45;;;2.80;99.90;;;;;;5055247;28;20033;-90
2021/01/15 05:59:17;;;;;;;18.38;11.13;;;2.70;99.90;;;;;;5036980;28;20032;-89
2021/01/15 06:01:48;;;;;;;17.30;10.75;;;2.70;99.90;;;;;;5020932;28;20052;-89
2021/01/15 06:04:37;;;;;;;20.40;12.25;;;2.60;99.90;;;;;;5037551;28;20386;-89
2021/01/15 06:07:09;;;;;;;16.63;11.35;;;2.70;99.90;;;;;;5041317;28;20108;-89
2021/01/15 06:09:43;;;;;;;13.65;9.35;;;2.60;99.90;;;;;;5062217;28;20466;-87
2021/01/15 06:12:39;;;;;;;20.63;10.65;;;2.70;99.90;;;;;;5029587;28;20032;-89
2021/01/15 06:15:06;;;;;;;15.68;9.90;;;2.70;99.90;;;;;;5036969;28;20027;-88
2021/01/15 06:17:38;;;;;;;15.50;10.02;;;2.60;99.90;;;;;;5020522;28;20085;-89
2021/01/15 06:20:05;;;;;;;16.05;10.55;;;2.60;99.90;;;;;;5037331;28;20053;-88
2021/01/15 06:22:44;;;;;;;15.57;10.57;;;2.60;99.90;;;;;;5040125;28;20029;-89
2021/01/15 06:25:28;;;;;;;17.15;11.15;;;2.70;99.90;;;;;;5040404;28;20035;-89
2021/01/15 06:27:55;;;;;;;17.85;11.70;;;2.70;99.90;;;;;;5056258;28;20028;-89
2021/01/15 06:30:32;;;;;;;16.75;10.82;;;2.70;99.90;;;;;;5057464;28;20024;-88
2021/01/15 06:33:12;;;;;;;16.83;10.55;;;2.70;99.90;;;;;;5057313;28;20359;-88
2021/01/15 06:35:40;;;;;;;17.17;10.77;;;2.80;99.90;;;;;;5073752;28;20028;-88
2021/01/15 06:38:10;;;;;;;18.77;11.32;;;2.90;99.90;;;;;;5057333;28;20075;-89
2021/01/15 06:40:43;;;;;;;18.42;11.20;;;2.90;99.90;;;;;;5075935;28;20432;-89
2021/01/15 06:43:19;;;;;;;17.70;10.75;;;2.80;99.90;;;;;;5061243;28;20031;-89
2021/01/15 06:45:47;;;;;;;16.90;10.57;;;2.90;99.90;;;;;;5063034;28;20051;-90
2021/01/15 06:48:34;;;;;;;20.05;11.52;;;2.90;99.90;;;;;;5060905;28;20028;-90
2021/01/15 06:51:01;;;;;;;16.50;10.68;;;2.90;99.90;;;;;;5059833;28;20074;-90
2021/01/15 06:53:29;;;;;;;19.17;11.27;;;3.00;99.90;;;;;;5058078;28;20028;-89
2021/01/15 06:55:59;;;;;;;17.58;11.40;;;3.10;99.90;;;;;;5058935;28;20025;-90
2021/01/15 06:58:29;;;;;;;14.55;10.10;;;3.20;99.90;;;;;;5055642;28;20043;-89
2021/01/15 07:01:16;;;;;;;16.23;10.57;;;3.20;99.90;;;;;;5061873;28;20024;-90
2021/01/15 07:03:53;;;;;;;18.40;10.93;;;3.30;99.90;;;;;;5077600;28;20036;-89
2021/01/15 07:06:30;;;;;;;15.27;10.85;;;3.40;99.90;;;;;;5061214;28;20053;-90
2021/01/15 07:08:57;;;;;;;18.27;10.68;;;3.50;99.90;;;;;;5064169;28;20059;-90
2021/01/15 07:11:27;;;;;;;18.48;10.68;;;3.50;99.90;;;;;;5062998;28;20076;-90
2021/01/15 07:13:55;;;;;;;19.20;11.18;;;3.30;99.90;;;;;;5077168;28;20033;-89
2021/01/15 07:16:39;;;;;;;17.88;11.07;;;3.40;99.90;;;;;;5077847;28;20028;-89
2021/01/15 07:19:05;;;;;;;16.13;10.95;;;3.50;99.90;;;;;;5075746;28;20131;-89
2021/01/15 07:21:43;;;;;;;20.48;10.80;;;3.30;99.90;;;;;;5071654;28;20029;-90
2021/01/15 07:24:09;;;;;;;17.55;11.27;;;3.40;99.90;;;;;;5068710;28;20016;-89
2021/01/15 07:26:41;;;;;;;16.15;11.68;;;3.30;99.90;;;;;;5068949;28;20086;-90
2021/01/15 07:29:14;;;;;;;18.27;11.75;;;3.30;99.90;;;;;;5076303;28;20017;-89
2021/01/15 07:31:45;;;;;;;17.45;11.32;;;3.20;99.90;;;;;;5080024;28;20016;-91
2021/01/15 07:34:17;;;;;;;17.65;10.95;;;3.10;99.90;;;;;;5080147;28;20013;-89
2021/01/15 07:36:43;;;;;;;15.65;11.15;;;3.10;99.90;;;;;;5079325;28;20127;-92
2021/01/15 07:39:17;;;;;;;15.98;10.05;;;3.00;99.90;;;;;;5079059;28;20008;-90
2021/01/15 07:41:48;;;;;;;19.65;11.93;;;3.00;99.90;;;;;;5078322;28;20029;-92
2021/01/15 07:44:23;;;;;;;21.63;12.32;;;3.10;99.90;;;;;;5060581;28;20044;-90
2021/01/15 07:46:49;;;;;;;;;;;3.10;99.90;;;;;;5065651;28;20032;-89
2021/01/15 07:49:15;;;;;;;18.95;11.27;;;3.10;99.90;;;;;;5062049;28;19904;-90
2021/01/15 07:51:41;;;;;;;19.90;11.13;;;3.00;99.90;;;;;;5059424;28;20032;-89
2021/01/15 07:54:07;;;;;;;21.40;11.77;;;3.00;99.90;;;;;;5044380;28;20035;-90
2021/01/15 07:56:33;;;;;;;20.35;11.35;;;3.00;99.90;;;;;;5081225;28;20063;-90
2021/01/15 07:58:58;;;;;;;17.33;10.30;;;3.10;99.90;;;;;;5067976;28;20055;-90
2021/01/15 08:01:25;;;;;;;21.20;11.48;;;3.10;99.90;;;;;;5091325;28;20473;-90
2021/01/15 08:03:54;;;;;;;19.50;11.43;;;3.10;99.90;;;;;;5067625;28;20024;-89
2021/01/15 08:06:21;;;;;;;20.17;11.25;;;3.20;99.90;;;;;;5061834;28;20024;-91
2021/01/15 08:09:05;;;;;;;17.92;10.73;;;3.20;99.90;;;;;;5077171;28;20078;-90
2021/01/15 08:11:33;;;;;;;20.40;11.77;;;3.20;99.90;;;;;;5058178;28;20249;-90
2021/01/15 08:14:20;;;;;;;19.38;11.98;;;3.40;99.90;;;;;;5058972;28;20466;-90
2021/01/15 08:16:49;;;;;;;16.40;10.85;;;3.50;99.90;;;;;;5079351;28;20031;-91
2021/01/15 08:19:21;;;;;;;21.77;12.20;;;3.60;99.90;;;;;;5059111;28;20485;-89
2021/01/15 08:21:48;;;;;;;17.33;12.00;;;3.50;99.90;;;;;;5076806;28;20024;-90
2021/01/15 08:24:14;;;;;;;18.80;11.63;;;3.40;99.90;;;;;;5041943;28;20536;-90
2021/01/15 08:26:50;;;;;;;19.05;11.95;;;3.40;99.90;;;;;;5045131;28;20028;-90
2021/01/15 08:29:17;;;;;;;16.02;11.13;;;3.40;99.90;;;;;;5060327;28;20082;-90
2021/01/15 08:31:43;;;;;;;17.13;10.80;;;3.50;99.90;;;;;;5060129;28;20496;-90
2021/01/15 08:34:15;;;;;;;19.38;11.35;;;3.60;99.90;;;;;;5078618;28;20024;-90
2021/01/15 08:36:44;;;;;;;15.88;10.77;;;3.70;99.90;;;;;;5061333;28;20074;-89
2021/01/15 08:39:10;;;;;;;20.77;12.70;;;3.70;99.90;;;;;;5058706;28;20032;-91
2021/01/15 08:41:37;;;;;;;16.52;10.75;;;3.60;99.90;;;;;;5059296;28;20505;-90
2021/01/15 08:44:04;;;;;;;15.57;11.13;;;3.70;99.90;;;;;;5028165;28;20244;-89
2021/01/15 08:46:31;;;;;;;18.67;11.43;;;3.70;99.90;;;;;;5043890;28;20492;-91
2021/01/15 08:48:58;;;;;;;16.75;11.48;;;3.80;99.90;;;;;;5077185;28;20029;-89
2021/01/15 08:51:26;;;;;;;17.27;11.25;;;3.90;99.90;;;;;;5058031;28;20050;-90
2021/01/15 08:56:37;;;;;;;19.08;12.60;;;3.80;99.90;;;;;;5076127;28;20047;-90
2021/01/15 08:59:11;;;;;;;18.33;11.97;;;3.70;99.90;;;;;;5076555;28;20036;-90
2021/01/15 09:01:41;;;;;;;16.85;11.50;;;3.80;99.90;;;;;;5044819;28;20039;-90
2021/01/15 09:04:13;;;;;;;21.58;12.52;;;3.50;99.90;;;;;;5059106;28;20028;-89
2021/01/15 09:06:43;;;;;;;18.40;11.80;;;3.70;99.90;;;;;;5058150;28;20142;-91
2021/01/15 09:09:10;;;;;;;15.95;11.73;;;3.80;99.90;;;;;;5080200;28;20029;-91
2021/01/15 09:11:38;;;;;;;19.63;12.20;;;3.80;99.90;;;;;;5059183;28;20021;-90
2021/01/15 09:14:12;;;;;;;19.05;12.27;;;3.80;99.90;;;;;;5044955;28;20059;-90
2021/01/15 09:16:39;;;;;;;20.50;12.27;;;3.90;99.90;;;;;;5058214;28;20480;-90
2021/01/15 09:19:09;;;;;;;21.90;13.00;;;4.00;99.90;;;;;;5066242;28;20049;-91
2021/01/15 09:21:52;;;;;;;22.08;12.57;;;4.00;99.90;;;;;;5059334;28;20032;-91
2021/01/15 09:24:20;;;;;;;24.60;14.70;;;3.90;99.90;;;;;;5038155;28;20424;-90
2021/01/15 09:26:46;;;;;;;20.65;13.65;;;3.70;99.90;;;;;;5040293;28;20025;-89
2021/01/15 09:29:12;;;;;;;27.02;14.18;;;3.90;99.90;;;;;;5022184;28;20052;-89
2021/01/15 09:31:44;;;;;;;25.42;14.68;;;4.00;99.90;;;;;;5038409;28;20060;-90
2021/01/15 09:34:12;;;;;;;21.98;13.85;;;3.80;99.90;;;;;;5061437;28;20459;-90
2021/01/15 09:36:41;;;;;;;21.15;13.68;;;3.40;99.90;;;;;;5042529;28;20120;-89
2021/01/15 09:39:10;;;;;;;22.02;14.13;;;3.50;99.90;;;;;;5056971;28;20025;-90
2021/01/15 09:41:41;;;;;;;23.50;13.55;;;3.70;99.90;;;;;;5039017;28;20025;-89
2021/01/15 09:44:14;;;;;;;25.58;14.55;;;3.90;99.90;;;;;;5040240;28;20025;-89
2021/01/15 09:46:40;;;;;;;31.35;14.82;;;4.00;99.90;;;;;;5045551;28;20055;-87
2021/01/15 09:49:07;;;;;;;28.00;13.93;;;4.00;99.90;;;;;;5049020;28;20386;-86
2021/01/15 09:51:43;;;;;;;23.25;13.98;;;4.10;99.90;;;;;;5032491;28;20143;-87
2021/01/15 09:54:09;;;;;;;20.75;12.77;;;4.00;99.90;;;;;;5048721;28;20417;-88
2021/01/15 09:56:42;;;;;;;21.60;12.57;;;4.00;99.90;;;;;;5040059;28;20148;-90
2021/01/15 09:59:15;;;;;;;21.38;13.15;;;4.10;99.90;;;;;;5044543;28;20033;-89
2021/01/15 10:01:52;;;;;;;22.52;13.63;;;4.10;99.90;;;;;;5057098;28;20036;-89
2021/01/15 10:04:18;;;;;;;24.90;12.88;;;4.20;99.90;;;;;;5039223;28;20025;-90
2021/01/15 10:06:48;;;;;;;19.88;12.43;;;4.20;99.90;;;;;;5025203;28;20029;-90
2021/01/15 10:09:20;;;;;;;18.77;11.70;;;4.20;99.90;;;;;;5059205;28;20061;-89
2021/01/15 10:11:50;;;;;;;19.45;12.02;;;4.20;99.90;;;;;;5025489;28;20497;-89
2021/01/15 10:14:18;;;;;;;21.00;11.63;;;4.30;99.90;;;;;;5021290;28;20064;-89
2021/01/15 10:16:47;;;;;;;22.48;11.80;;;4.30;99.90;;;;;;5037399;28;20025;-90
2021/01/15 10:19:15;;;;;;;23.52;11.13;;;4.40;99.90;;;;;;5051887;28;20088;-90
2021/01/15 10:21:40;;;;;;;20.83;11.40;;;4.40;99.90;;;;;;5058687;28;20032;-89
2021/01/15 10:24:09;;;;;;;18.63;10.30;;;4.40;99.90;;;;;;5064860;28;20179;-90
2021/01/15 10:26:46;;;;;;;18.30;9.77;;;4.40;99.90;;;;;;5068690;28;20028;-90
2021/01/15 10:29:22;;;;;;;17.73;9.98;;;4.40;99.90;;;;;;5056886;28;20108;-91
2021/01/15 10:31:54;;;;;;;18.42;9.65;;;4.40;99.90;;;;;;5061027;28;20078;-91
2021/01/15 10:34:22;;;;;;;13.93;9.18;;;4.50;99.90;;;;;;5076561;28;20052;-91
2021/01/15 10:36:51;;;;;;;16.00;9.73;;;4.50;99.90;;;;;;5043106;28;20471;-91
2021/01/15 10:39:20;;;;;;;17.67;10.63;;;4.50;99.90;;;;;;5062442;28;20099;-90
2021/01/15 10:41:47;;;;;;;19.45;10.90;;;4.40;99.90;;;;;;5051518;28;20032;-90
2021/01/15 10:44:21;;;;;;;21.00;11.45;;;4.40;99.90;;;;;;5066881;28;20059;-91
2021/01/15 10:46:50;;;;;;;21.85;12.38;;;4.40;99.90;;;;;;5060415;28;20024;-92
2021/01/15 10:49:18;;;;;;;20.02;12.70;;;4.40;99.90;;;;;;5057384;28;20056;-91
2021/01/15 10:51:53;;;;;;;20.85;12.52;;;4.30;99.90;;;;;;5058350;28;20493;-89
2021/01/15 10:54:22;;;;;;;18.08;11.55;;;4.30;99.90;;;;;;5059426;28;20060;-90
2021/01/15 10:56:52;;;;;;;17.52;11.88;;;4.40;99.90;;;;;;5062441;28;20025;-91
2021/01/15 10:59:18;;;;;;;21.23;12.38;;;4.50;99.90;;;;;;5061446;28;20032;-92
2021/01/15 11:01:47;;;;;;;20.15;12.40;;;4.50;99.90;;;;;;5081380;28;20031;-90
2021/01/15 11:04:17;;;;;;;20.42;12.23;;;4.40;99.90;;;;;;5061322;28;20055;-91
2021/01/15 11:06:45;;;;;;;23.65;12.70;;;4.30;99.90;;;;;;5064360;28;20029;-91
2021/01/15 11:09:16;;;;;;;18.52;12.05;;;4.10;99.90;;;;;;5044570;28;20032;-89
2021/01/15 11:11:48;;;;;;;24.50;12.55;;;4.00;99.90;;;;;;5062313;28;20027;-90
2021/01/15 11:14:15;;;;;;;22.30;12.32;;;4.10;99.90;;;;;;5044544;28;20036;-90
2021/01/15 11:16:41;;;;;;;25.08;13.73;;;4.00;99.90;;;;;;5060818;28;20060;-90
2021/01/15 11:19:07;;;;;;;20.23;12.55;;;3.90;99.90;;;;;;5056950;28;20053;-91
2021/01/15 11:21:33;;;;;;;18.10;11.93;;;4.00;99.90;;;;;;5056750;28;20035;-91
2021/01/15 11:23:59;;;;;;;19.02;11.63;;;4.20;99.90;;;;;;5056687;28;20025;-92
2021/01/15 11:26:31;;;;;;;19.20;11.85;;;4.30;99.90;;;;;;5056328;28;20139;-90
2021/01/15 11:28:58;;;;;;;17.52;11.20;;;4.40;99.90;;;;;;5055676;28;20025;-90
2021/01/15 11:31:25;;;;;;;17.67;11.10;;;4.50;99.90;;;;;;5075002;28;20035;-90
2021/01/15 11:33:52;;;;;;;19.10;11.02;;;4.50;99.90;;;;;;5060148;28;20119;-89
2021/01/15 11:36:19;;;;;;;18.48;10.75;;;4.60;99.90;;;;;;5064727;28;20032;-90
2021/01/15 11:38:45;;;;;;;17.63;11.07;;;4.60;99.90;;;;;;5064181;28;20546;-90
2021/01/15 11:41:13;;;;;;;15.88;10.05;;;4.70;99.90;;;;;;5062519;28;20020;-90
2021/01/15 11:43:39;;;;;;;22.40;11.02;;;4.70;99.90;;;;;;5077458;28;20113;-91
2021/01/15 11:46:08;;;;;;;20.65;11.57;;;4.70;99.90;;;;;;5061456;28;20103;-90
2021/01/15 11:48:37;;;;;;;20.77;10.95;;;4.40;99.90;;;;;;5044924;28;20064;-91
2021/01/15 11:51:04;;;;;;;17.08;11.00;;;4.40;99.90;;;;;;5080640;28;20028;-90
2021/01/15 11:53:34;;;;;;;15.77;10.73;;;4.60;99.90;;;;;;5079468;28;20024;-89
2021/01/15 11:56:01;;;;;;;17.80;11.43;;;4.70;99.90;;;;;;5079572;28;20021;-89
2021/01/15 11:58:30;;;;;;;18.85;11.60;;;4.80;99.90;;;;;;5059381;28;20055;-88
2021/01/15 12:00:56;;;;;;;19.58;11.63;;;4.90;99.90;;;;;;5087028;28;20039;-90
2021/01/15 12:03:22;;;;;;;19.65;10.85;;;4.90;99.90;;;;;;5059849;28;20036;-90
2021/01/15 12:05:51;;;;;;;22.02;10.80;;;4.90;99.90;;;;;;5060242;28;20458;-89
2021/01/15 12:08:21;;;;;;;25.75;11.32;;;5.00;99.90;;;;;;5059971;28;20029;-90
2021/01/15 12:10:48;;;;;;;16.85;10.35;;;5.00;99.90;;;;;;5061203;28;20020;-89
2021/01/15 12:13:14;;;;;;;19.25;10.98;;;4.80;99.90;;;;;;5061356;28;20020;-88
2021/01/15 12:15:40;;;;;;;15.05;9.82;;;4.80;99.90;;;;;;5079345;28;20084;-89
2021/01/15 12:18:06;;;;;;;15.20;8.98;;;4.60;99.90;;;;;;5060088;28;20090;-89
2021/01/15 12:20:36;;;;;;;16.42;9.02;;;4.70;99.90;;;;;;5041134;28;20064;-91
2021/01/15 12:23:03;;;;;;;14.70;8.80;;;4.70;99.90;;;;;;5058500;28;20025;-90
2021/01/15 12:25:29;;;;;;;13.00;7.57;;;4.80;99.90;;;;;;5024722;28;20144;-88
2021/01/15 12:27:55;;;;;;;13.25;8.13;;;4.90;99.90;;;;;;5025897;28;20060;-89
2021/01/15 12:30:21;;;;;;;9.90;6.45;;;4.80;99.90;;;;;;5042432;28;20029;-89
2021/01/15 12:32:48;;;;;;;11.68;6.95;;;4.70;99.90;;;;;;5044428;28;20031;-89
2021/01/15 12:35:13;;;;;;;14.15;6.63;;;4.60;99.90;;;;;;5045430;28;20033;-90
2021/01/15 12:37:39;;;;;;;13.38;7.70;;;4.60;99.90;;;;;;5044529;28;20048;-89
2021/01/15 12:40:05;;;;;;;8.77;6.35;;;4.70;99.90;;;;;;5057625;28;20399;-90
2021/01/15 12:42:32;;;;;;;10.25;6.35;;;4.70;99.90;;;;;;5039382;28;20165;-89
2021/01/15 12:44:57;;;;;;;16.30;7.03;;;4.60;99.90;;;;;;5057673;28;20028;-90
2021/01/15 12:47:23;;;;;;;13.00;7.40;;;4.60;99.90;;;;;;5041584;28;20386;-89
2021/01/15 12:49:48;;;;;;;13.35;7.35;;;4.60;99.90;;;;;;5042341;28;20040;-90
2021/01/15 12:52:19;;;;;;;11.00;6.63;;;4.60;99.90;;;;;;5041894;28;20025;-89
2021/01/15 12:54:44;;;;;;;10.40;6.40;;;4.50;99.90;;;;;;5044832;28;20025;-89
2021/01/15 12:57:12;;;;;;;15.65;6.78;;;4.50;99.90;;;;;;5033140;28;20128;-89